SANT/TUC METAR and TAF weather

Enter ICAO airport designator
Station Type Date Time Source
SANT METAR 2022/12/01 00:00 UTC NOAA

SANT 010000Z 00000KT 9999 SCT050 BKN180 21/18 Q1008 RMK PP000


Station Type Date Time Source
SANT Decoded METAR 2022/12/01 00:00 UTC NOAA

Tucuman Aerodrome, Argentina (SANT) 26-51S 065-06W 450M
Nov 30, 2022 - 07:00 PM EST / 2022.12.01 0000 UTC
Wind: Calm:0
Visibility: greater than 7 mile(s):0
Sky conditions: mostly cloudy
Temperature: 69 F (21 C)
Dew Point: 64 F (18 C)
Relative Humidity: 82%
Pressure (altimeter): 29.77 in. Hg (1008 hPa)
ob: SANT 010000Z 00000KT 9999 SCT050 BKN180 21/18 Q1008 RMK PP000
cycle: 0

Station Type Date Time Source
SANT TAF 2022/11/30 18:26 UTC NOAA

TAF SANT 301700Z 3018/0118 23010KT SCT025 FEW050CB TX20/0118Z TN16/0110Z
BECMG 3021/0100 23010KT 5000 TSRA SCT030 BKN040 FEW040CB

Example: see airport list